createdAt,value
2022-11-16T00:01:12.885Z,6.16
2022-11-16T00:03:59.931Z,6.16
2022-11-16T00:06:46.345Z,6.16
2022-11-16T00:09:32.715Z,6.16
2022-11-16T00:12:17.986Z,6.16
2022-11-16T00:15:04.362Z,6.16
2022-11-16T00:17:49.838Z,6.23
2022-11-16T00:20:37.913Z,6.26
2022-11-16T00:23:24.240Z,6.27
2022-11-16T00:26:12.662Z,6.21
2022-11-16T00:28:57.817Z,6.19
2022-11-16T00:31:44.404Z,6.19
2022-11-16T00:34:30.088Z,6.22
2022-11-16T00:37:15.206Z,6.23
2022-11-16T00:40:00.620Z,6.15
2022-11-16T00:42:46.011Z,6.11
2022-11-16T00:45:31.321Z,6.13
2022-11-16T00:48:16.466Z,6.15
2022-11-16T00:51:01.650Z,6.09
2022-11-16T00:53:47.423Z,6.03
2022-11-16T00:56:32.900Z,6.02
2022-11-16T00:59:18.044Z,6.02
2022-11-16T01:02:03.633Z,5.99
2022-11-16T01:04:48.878Z,6.00
2022-11-16T01:07:38.930Z,6.00
2022-11-16T01:10:26.034Z,6.04
2022-11-16T01:13:11.734Z,6.01
2022-11-16T01:15:56.867Z,5.98
2022-11-16T01:18:43.842Z,6.01
2022-11-16T01:21:29.097Z,6.02
2022-11-16T01:24:14.679Z,6.05
2022-11-16T01:27:00.024Z,6.07
2022-11-16T01:29:49.314Z,6.03
2022-11-16T01:32:35.780Z,6.08
2022-11-16T01:35:21.843Z,6.07
2022-11-16T01:38:07.274Z,6.07
2022-11-16T01:40:53.380Z,6.06
2022-11-16T01:44:03.570Z,6.00
2022-11-16T01:46:55.545Z,5.99
2022-11-16T01:49:55.150Z,5.99
2022-11-16T01:52:53.989Z,5.93
2022-11-16T01:55:43.180Z,5.94
2022-11-16T01:58:35.189Z,5.94
2022-11-16T02:01:31.549Z,5.94
2022-11-16T02:04:19.485Z,5.88
2022-11-16T02:07:23.481Z,5.86
2022-11-16T02:10:55.747Z,5.85
2022-11-16T02:14:13.245Z,5.86
2022-11-16T02:17:19.618Z,5.87
2022-11-16T02:20:12.016Z,5.88
2022-11-16T02:23:09.495Z,5.89
2022-11-16T02:26:38.008Z,5.86
2022-11-16T02:29:37.862Z,5.85
2022-11-16T02:32:30.610Z,5.85
2022-11-16T02:35:25.439Z,5.80
2022-11-16T02:38:32.714Z,5.77
2022-11-16T02:41:22.178Z,5.76
2022-11-16T02:44:15.656Z,5.75
2022-11-16T02:47:11.349Z,5.81
2022-11-16T02:50:02.109Z,5.86
2022-11-16T02:52:47.584Z,5.82
2022-11-16T02:55:35.990Z,5.78
2022-11-16T02:58:25.317Z,5.76
2022-11-16T03:01:18.265Z,5.76
2022-11-16T03:04:12.001Z,5.69
2022-11-16T03:07:01.929Z,5.66
2022-11-16T03:09:50.133Z,5.71
2022-11-16T03:12:37.998Z,5.73
2022-11-16T03:15:24.063Z,5.71
2022-11-16T03:18:12.238Z,5.75
2022-11-16T03:21:06.825Z,5.75
2022-11-16T03:23:52.242Z,5.77
2022-11-16T03:26:51.090Z,5.83
2022-11-16T03:30:11.379Z,5.85
2022-11-16T03:33:07.258Z,5.84
2022-11-16T03:36:00.536Z,5.85
2022-11-16T03:38:50.781Z,5.90
2022-11-16T03:41:39.898Z,5.86
2022-11-16T03:44:26.694Z,5.80
2022-11-16T03:47:13.355Z,5.81
2022-11-16T03:49:58.989Z,5.82
2022-11-16T03:52:44.332Z,5.83
2022-11-16T03:55:31.091Z,5.81
2022-11-16T03:58:18.549Z,5.76
2022-11-16T04:01:04.441Z,5.72
2022-11-16T04:03:49.621Z,5.62
2022-11-16T04:06:56.196Z,5.60
2022-11-16T04:10:00.415Z,5.60
2022-11-16T04:13:04.564Z,5.53
2022-11-16T04:16:08.256Z,5.55
2022-11-16T04:19:11.824Z,5.60
2022-11-16T04:22:32.222Z,5.61
2022-11-16T04:25:23.176Z,5.62
2022-11-16T04:28:16.237Z,5.65
2022-11-16T04:31:25.749Z,5.69
2022-11-16T04:34:38.242Z,5.69
2022-11-16T04:37:42.522Z,5.72
2022-11-16T04:40:29.493Z,5.74
2022-11-16T04:43:15.567Z,5.77
2022-11-16T04:46:41.319Z,5.74
2022-11-16T04:49:27.148Z,5.77
2022-11-16T04:52:14.856Z,5.79
2022-11-16T04:55:01.820Z,5.81
2022-11-16T04:57:47.769Z,5.82
2022-11-16T05:00:33.810Z,5.84
2022-11-16T05:03:19.487Z,5.84
2022-11-16T05:06:05.327Z,5.88
2022-11-16T05:08:51.432Z,5.88
2022-11-16T05:11:36.779Z,5.87
2022-11-16T05:14:22.097Z,5.85
2022-11-16T05:17:08.423Z,5.85
2022-11-16T05:20:12.887Z,5.85
2022-11-16T05:23:05.794Z,5.86
2022-11-16T05:25:55.077Z,5.91
2022-11-16T05:28:41.074Z,5.97
2022-11-16T05:31:28.867Z,6.00
2022-11-16T05:34:14.930Z,6.02
2022-11-16T05:37:00.926Z,6.05
2022-11-16T05:39:48.199Z,6.06
2022-11-16T05:42:35.019Z,6.07
2022-11-16T05:45:21.303Z,6.11
2022-11-16T05:48:07.628Z,6.18
2022-11-16T05:50:58.609Z,6.23
2022-11-16T05:53:44.652Z,6.23
2022-11-16T05:56:34.932Z,6.28
2022-11-16T05:59:22.904Z,6.31
2022-11-16T06:02:11.546Z,6.32
2022-11-16T06:04:57.087Z,6.29
2022-11-16T06:07:42.500Z,6.28
2022-11-16T06:10:27.514Z,6.29
2022-11-16T06:13:13.061Z,6.32
2022-11-16T06:15:59.581Z,6.36
2022-11-16T06:18:47.310Z,6.38
2022-11-16T06:21:34.219Z,6.40
2022-11-16T06:24:22.244Z,6.42
2022-11-16T06:27:07.432Z,6.43
2022-11-16T06:29:54.436Z,6.45
2022-11-16T06:32:40.271Z,6.50
2022-11-16T06:35:26.382Z,6.49
2022-11-16T06:38:18.229Z,6.52
2022-11-16T06:41:05.127Z,6.54
2022-11-16T06:43:55.862Z,6.59
2022-11-16T06:46:47.049Z,6.67
2022-11-16T06:49:32.191Z,6.66
2022-11-16T06:52:20.852Z,6.63
2022-11-16T06:55:06.895Z,6.61
2022-11-16T06:57:54.153Z,6.64
2022-11-16T07:00:39.773Z,6.66
2022-11-16T07:03:26.869Z,6.68
2022-11-16T07:06:13.646Z,6.74
2022-11-16T07:09:05.968Z,6.79
2022-11-16T07:11:51.383Z,6.78
2022-11-16T07:14:38.421Z,6.78
2022-11-16T07:17:26.595Z,6.67
2022-11-16T07:20:12.199Z,6.63
2022-11-16T07:23:02.846Z,6.63
2022-11-16T07:25:47.931Z,6.57
2022-11-16T07:28:47.749Z,6.53
2022-11-16T07:31:34.589Z,6.52
2022-11-16T07:34:42.403Z,6.51
2022-11-16T07:37:31.775Z,6.52
2022-11-16T07:40:17.282Z,6.51
2022-11-16T07:43:03.933Z,6.54
2022-11-16T07:46:21.321Z,6.51
2022-11-16T07:49:09.872Z,6.58
2022-11-16T07:52:10.685Z,6.63
2022-11-16T07:55:16.182Z,6.73
2022-11-16T07:58:03.316Z,6.71
2022-11-16T08:00:49.211Z,6.67
2022-11-16T08:03:35.737Z,6.63
2022-11-16T08:06:25.857Z,6.63
2022-11-16T08:09:13.857Z,6.67
2022-11-16T08:11:59.833Z,6.67
2022-11-16T08:14:45.402Z,6.68
2022-11-16T08:17:32.155Z,6.64
2022-11-16T08:20:18.117Z,6.61
2022-11-16T08:23:03.490Z,6.63
2022-11-16T08:25:52.648Z,6.66
2022-11-16T08:28:38.188Z,6.67
2022-11-16T08:31:26.623Z,6.66
2022-11-16T08:34:17.505Z,6.68
2022-11-16T08:37:08.316Z,6.63
2022-11-16T08:40:03.108Z,6.54
2022-11-16T08:42:51.653Z,6.53
2022-11-16T08:45:38.382Z,6.53
2022-11-16T08:48:23.927Z,6.59
2022-11-16T08:51:17.835Z,6.57
2022-11-16T08:54:09.437Z,6.55
2022-11-16T08:56:57.263Z,6.51
2022-11-16T08:59:42.766Z,6.48
2022-11-16T09:02:31.812Z,6.49
2022-11-16T09:05:17.160Z,6.51
2022-11-16T09:08:02.538Z,6.54
2022-11-16T09:10:48.121Z,6.55
2022-11-16T09:13:33.631Z,6.52
2022-11-16T09:16:20.907Z,6.55
2022-11-16T09:19:06.172Z,6.58
2022-11-16T09:21:51.567Z,6.62
2022-11-16T09:24:37.209Z,6.65
2022-11-16T09:27:22.714Z,6.69
2022-11-16T09:30:09.369Z,6.66
2022-11-16T09:32:54.952Z,6.68
2022-11-16T09:35:40.431Z,6.70
2022-11-16T09:38:40.313Z,6.71
2022-11-16T09:42:02.680Z,6.73
2022-11-16T09:45:08.421Z,7.01
2022-11-16T09:47:59.361Z,8.18
2022-11-16T09:51:02.682Z,8.12
2022-11-16T09:53:58.463Z,7.68
2022-11-16T09:56:47.524Z,7.49
2022-11-16T09:59:40.946Z,7.26
2022-11-16T10:02:38.941Z,7.08
2022-11-16T10:05:31.334Z,6.96
2022-11-16T10:08:48.449Z,6.88
2022-11-16T10:11:55.114Z,6.79
2022-11-16T10:15:01.669Z,6.75
2022-11-16T10:18:18.465Z,6.78
2022-11-16T10:21:23.539Z,6.82
2022-11-16T10:24:25.845Z,6.77
2022-11-16T10:28:17.304Z,6.74
2022-11-16T10:31:18.079Z,6.68
2022-11-16T10:34:08.889Z,6.68
2022-11-16T10:36:58.589Z,6.73
2022-11-16T10:39:46.892Z,6.71
2022-11-16T10:42:37.153Z,6.67
2022-11-16T10:45:30.341Z,6.64
2022-11-16T10:48:42.509Z,6.69
2022-11-16T10:51:27.769Z,6.70
2022-11-16T10:54:17.976Z,6.71
2022-11-16T10:57:13.939Z,6.73
2022-11-16T10:59:59.603Z,6.76
2022-11-16T11:02:48.440Z,6.79
2022-11-16T11:05:36.127Z,6.79
2022-11-16T11:08:31.470Z,6.77
2022-11-16T11:11:40.722Z,6.75
2022-11-16T11:14:26.107Z,6.77
2022-11-16T11:17:14.104Z,6.80
2022-11-16T11:20:16.933Z,6.78
2022-11-16T11:23:12.361Z,6.80
2022-11-16T11:26:00.186Z,6.75
2022-11-16T11:28:49.272Z,6.75
2022-11-16T11:31:46.270Z,6.74
2022-11-16T11:34:41.707Z,6.78
2022-11-16T11:37:31.684Z,6.76
2022-11-16T11:40:20.082Z,6.81
2022-11-16T11:43:06.400Z,6.77
2022-11-16T11:46:04.058Z,6.77
2022-11-16T11:49:04.701Z,6.80
2022-11-16T11:51:52.081Z,6.79
2022-11-16T11:54:47.615Z,6.71
2022-11-16T11:57:38.770Z,6.73
2022-11-16T12:00:25.995Z,6.70
2022-11-16T12:03:38.374Z,6.72
2022-11-16T12:06:38.732Z,6.78
2022-11-16T12:09:46.178Z,6.83
2022-11-16T12:12:59.458Z,6.80
2022-11-16T12:15:59.197Z,6.83
2022-11-16T12:18:53.693Z,6.82
2022-11-16T12:21:59.219Z,6.82
2022-11-16T12:25:18.761Z,6.85
2022-11-16T12:28:25.911Z,6.86
2022-11-16T12:31:39.193Z,6.84
2022-11-16T12:35:00.745Z,6.86
2022-11-16T12:38:15.302Z,6.80
2022-11-16T12:41:39.897Z,6.80
2022-11-16T12:44:50.896Z,6.80
2022-11-16T12:48:03.559Z,6.85
2022-11-16T12:51:04.048Z,6.86
2022-11-16T12:54:15.842Z,6.87
2022-11-16T12:57:26.552Z,6.83
2022-11-16T13:00:16.736Z,6.75
2022-11-16T13:03:17.905Z,6.77
2022-11-16T13:06:08.445Z,6.79
2022-11-16T13:09:11.016Z,6.83
2022-11-16T13:12:14.064Z,6.84
2022-11-16T13:15:02.847Z,6.90
2022-11-16T13:17:55.008Z,6.90
2022-11-16T13:20:45.926Z,6.91
2022-11-16T13:23:31.288Z,6.89
2022-11-16T13:26:19.810Z,6.94
2022-11-16T13:29:34.025Z,6.92
2022-11-16T13:32:39.493Z,6.90
2022-11-16T13:35:25.432Z,6.92
2022-11-16T13:38:13.774Z,6.91
2022-11-16T13:41:33.510Z,6.91
2022-11-16T13:44:20.059Z,6.92
2022-11-16T13:47:30.368Z,6.93
2022-11-16T13:50:23.086Z,6.98
2022-11-16T13:54:10.862Z,6.99
2022-11-16T13:56:25.614Z,7.01
2022-11-16T13:59:16.686Z,7.00
2022-11-16T14:02:23.636Z,7.01
2022-11-16T14:05:12.069Z,7.06
2022-11-16T14:07:57.758Z,7.06
2022-11-16T14:10:48.982Z,7.11
2022-11-16T14:13:37.464Z,7.10
2022-11-16T14:16:22.963Z,7.10
2022-11-16T14:19:44.256Z,7.08
2022-11-16T14:22:52.578Z,7.10
2022-11-16T14:25:40.379Z,7.07
2022-11-16T14:28:44.945Z,7.05
2022-11-16T14:31:45.150Z,7.11
2022-11-16T14:34:41.740Z,7.10
2022-11-16T14:37:30.414Z,7.09
2022-11-16T14:40:18.412Z,7.05
2022-11-16T14:43:17.045Z,7.05
2022-11-16T14:46:08.485Z,7.04
2022-11-16T14:48:56.418Z,6.97
2022-11-16T14:51:49.108Z,6.93
2022-11-16T14:54:40.488Z,6.91
2022-11-16T14:57:26.280Z,6.89
2022-11-16T15:00:20.131Z,6.88
2022-11-16T15:03:06.526Z,6.86
2022-11-16T15:05:51.809Z,6.80
2022-11-16T15:08:42.086Z,6.73
2022-11-16T15:11:52.224Z,6.69
2022-11-16T15:14:44.353Z,6.69
2022-11-16T15:17:33.217Z,6.66
2022-11-16T15:20:23.767Z,6.66
2022-11-16T15:23:15.153Z,6.70
2022-11-16T15:26:02.318Z,6.69
2022-11-16T15:28:50.286Z,6.68
2022-11-16T15:31:36.983Z,6.72
2022-11-16T15:34:22.515Z,6.71
2022-11-16T15:37:12.156Z,6.74
2022-11-16T15:40:09.801Z,6.71
2022-11-16T15:43:00.323Z,6.67
2022-11-16T15:45:46.649Z,6.66
2022-11-16T15:48:33.478Z,6.66
2022-11-16T15:51:24.240Z,6.64
2022-11-16T15:54:30.648Z,6.65
2022-11-16T15:57:15.925Z,6.64
2022-11-16T16:00:01.418Z,6.63
2022-11-16T16:02:46.876Z,6.62
2022-11-16T16:05:39.828Z,6.64
2022-11-16T16:08:37.389Z,6.66
2022-11-16T16:11:26.779Z,6.65
2022-11-16T16:14:24.544Z,6.68
2022-11-16T16:17:20.803Z,6.70
2022-11-16T16:20:07.562Z,6.77
2022-11-16T16:22:54.443Z,6.78
2022-11-16T16:25:39.761Z,6.79
2022-11-16T16:28:25.028Z,6.82
2022-11-16T16:31:11.376Z,6.84
2022-11-16T16:33:56.805Z,6.81
2022-11-16T16:36:42.131Z,6.76
2022-11-16T16:39:27.472Z,6.77
2022-11-16T16:42:15.628Z,6.76
2022-11-16T16:45:02.176Z,6.77
2022-11-16T16:47:47.849Z,6.71
2022-11-16T16:50:33.521Z,6.68
2022-11-16T16:53:18.844Z,6.69
2022-11-16T16:56:04.502Z,6.68
2022-11-16T16:58:50.040Z,6.69
2022-11-16T17:01:35.749Z,6.76
2022-11-16T17:04:21.540Z,6.75
2022-11-16T17:07:07.181Z,6.69
2022-11-16T17:09:52.633Z,6.71
2022-11-16T17:12:37.875Z,6.72
2022-11-16T17:15:24.067Z,6.71
2022-11-16T17:18:09.365Z,6.75
2022-11-16T17:20:54.699Z,6.82
2022-11-16T17:23:40.012Z,6.76
2022-11-16T17:26:29.095Z,6.74
2022-11-16T17:29:14.953Z,6.77
2022-11-16T17:32:00.699Z,6.80
2022-11-16T17:34:46.223Z,6.81
2022-11-16T17:37:32.019Z,6.79
2022-11-16T17:40:17.588Z,6.79
2022-11-16T17:43:03.277Z,6.74
2022-11-16T17:45:48.657Z,6.72
2022-11-16T17:48:35.297Z,6.76
2022-11-16T17:51:23.724Z,6.73
2022-11-16T17:54:09.087Z,6.74
2022-11-16T17:56:54.713Z,6.72
2022-11-16T17:59:39.789Z,6.70
2022-11-16T18:02:25.020Z,6.67
2022-11-16T18:05:10.184Z,6.66
2022-11-16T18:07:57.877Z,6.65
2022-11-16T18:10:43.249Z,6.59
2022-11-16T18:13:28.326Z,6.58
2022-11-16T18:16:16.535Z,6.59
2022-11-16T18:19:04.385Z,6.63
2022-11-16T18:21:49.478Z,6.59
2022-11-16T18:24:34.976Z,6.55
2022-11-16T18:27:20.295Z,6.49
2022-11-16T18:30:05.996Z,6.52
2022-11-16T18:32:51.145Z,6.51
2022-11-16T18:35:36.102Z,6.56
2022-11-16T18:38:22.076Z,6.59
2022-11-16T18:41:13.506Z,6.60
2022-11-16T18:44:01.231Z,6.64
2022-11-16T18:46:46.660Z,6.60
2022-11-16T18:49:32.043Z,6.56
2022-11-16T18:52:17.109Z,6.56
2022-11-16T18:55:02.481Z,6.56
2022-11-16T18:57:47.769Z,6.59
2022-11-16T19:00:33.241Z,6.52
2022-11-16T19:03:18.705Z,6.47
2022-11-16T19:06:07.529Z,6.45
2022-11-16T19:08:58.585Z,6.46
2022-11-16T19:11:43.705Z,6.43
2022-11-16T19:14:29.019Z,6.37
2022-11-16T19:17:14.398Z,6.36
2022-11-16T19:19:59.768Z,6.36
2022-11-16T19:22:44.823Z,6.38
2022-11-16T19:25:30.248Z,6.43
2022-11-16T19:28:15.427Z,6.45
2022-11-16T19:31:08.259Z,6.45
2022-11-16T19:33:59.788Z,6.47
2022-11-16T19:36:44.889Z,6.48
2022-11-16T19:39:30.403Z,6.48
2022-11-16T19:42:15.754Z,6.52
2022-11-16T19:45:01.242Z,6.50
2022-11-16T19:47:46.655Z,6.47
2022-11-16T19:50:31.753Z,6.43
2022-11-16T19:53:17.018Z,6.41
2022-11-16T19:56:03.592Z,6.42
2022-11-16T19:58:49.117Z,6.39
2022-11-16T20:01:34.590Z,6.42
2022-11-16T20:04:19.750Z,6.37
2022-11-16T20:07:07.364Z,6.35
2022-11-16T20:09:54.525Z,6.36
2022-11-16T20:12:39.590Z,6.35
2022-11-16T20:15:25.665Z,6.38
2022-11-16T20:18:10.871Z,6.37
2022-11-16T20:21:00.894Z,6.36
2022-11-16T20:23:45.972Z,6.33
2022-11-16T20:26:33.406Z,6.32
2022-11-16T20:29:19.201Z,6.36
2022-11-16T20:32:04.579Z,6.40
2022-11-16T20:34:49.761Z,6.38
2022-11-16T20:37:35.018Z,6.39
2022-11-16T20:40:20.575Z,6.39
2022-11-16T20:43:06.043Z,6.30
2022-11-16T20:45:52.630Z,6.26
2022-11-16T20:48:39.338Z,6.24
2022-11-16T20:51:24.785Z,6.18
2022-11-16T20:54:10.072Z,6.19
2022-11-16T20:56:55.612Z,6.17
2022-11-16T20:59:40.866Z,6.17
2022-11-16T21:02:26.014Z,6.14
2022-11-16T21:05:13.577Z,6.13
2022-11-16T21:07:59.481Z,6.10
2022-11-16T21:10:45.461Z,6.08
2022-11-16T21:13:49.221Z,6.01
2022-11-16T21:16:34.709Z,6.00
2022-11-16T21:19:19.826Z,6.03
2022-11-16T21:22:05.219Z,5.99
2022-11-16T21:24:50.644Z,5.97
2022-11-16T21:27:36.061Z,5.99
2022-11-16T21:30:21.653Z,5.97
2022-11-16T21:33:06.743Z,6.02
2022-11-16T21:35:54.260Z,5.96
2022-11-16T21:38:39.484Z,5.84
2022-11-16T21:41:25.746Z,5.80
2022-11-16T21:44:11.342Z,5.77
2022-11-16T21:46:56.901Z,5.75
2022-11-16T21:50:08.328Z,5.77
2022-11-16T21:52:48.207Z,5.81
2022-11-16T21:55:41.543Z,5.78
2022-11-16T21:58:27.430Z,5.73
2022-11-16T22:01:17.375Z,5.71
2022-11-16T22:04:20.988Z,5.61
2022-11-16T22:07:24.826Z,5.63
2022-11-16T22:10:12.933Z,5.69
2022-11-16T22:13:03.411Z,5.72
2022-11-16T22:15:56.325Z,5.73
2022-11-16T22:18:42.206Z,5.73
2022-11-16T22:21:29.738Z,5.66
2022-11-16T22:24:19.361Z,5.62
2022-11-16T22:27:27.201Z,5.58
2022-11-16T22:30:12.662Z,5.58
2022-11-16T22:32:57.916Z,5.58
2022-11-16T22:35:45.649Z,5.54
2022-11-16T22:38:31.314Z,5.49
2022-11-16T22:41:16.438Z,5.49
2022-11-16T22:44:04.443Z,5.54
2022-11-16T22:46:52.654Z,5.54
2022-11-16T22:49:41.219Z,5.46
2022-11-16T22:52:26.722Z,5.44
2022-11-16T22:55:12.377Z,5.42
2022-11-16T22:57:57.542Z,5.44
2022-11-16T23:00:42.962Z,5.47
2022-11-16T23:03:29.148Z,5.43
2022-11-16T23:06:15.060Z,5.37
2022-11-16T23:09:00.285Z,5.38
2022-11-16T23:12:03.899Z,5.35
2022-11-16T23:15:07.867Z,5.33
2022-11-16T23:17:53.226Z,5.31
2022-11-16T23:20:57.423Z,5.24
2022-11-16T23:24:01.246Z,5.20
2022-11-16T23:27:05.118Z,5.13
2022-11-16T23:29:50.289Z,5.05
2022-11-16T23:32:35.706Z,5.03
2022-11-16T23:35:21.292Z,4.99
2022-11-16T23:38:07.511Z,4.87
2022-11-16T23:40:53.863Z,4.88
2022-11-16T23:43:57.837Z,4.91
2022-11-16T23:46:42.894Z,4.83
2022-11-16T23:49:27.741Z,4.78
2022-11-16T23:52:13.560Z,4.77
2022-11-16T23:54:59.034Z,4.81
2022-11-16T23:57:44.547Z,4.81
